sim
Sign-in with your pilot id or email,
or register
Callsign
Passwort

Schedule Details

Flight Number: OEO6017
Departure: Lanzarote Airport (GCRR) at 16:25
Arrival: Munich Airport (EDDM) at 20:55

Weather Information
Getting current METAR information for GCRR 010000Z 02008KT 9999 FEW020 22/17 Q1018
Getting current METAR information for EDDM 010020Z 33001KT 1500 0500NE R08L/0550D R08R/0700N BCFG NSC 05/05 Q1011 NOSIG

Schedule Frequency

Route Map